Pleasant View, Tennessee
Current Conditions -  °F | °C
As of 6:52 PM on Saturday 25 Oct 2014 (Local Time) from KCKV Reporting Station
Clear Clear  
Wind Chill: 70°   Ceiling: Unl
Heat Index: 70°   Visibility: 10mi
Dew Point: 61°   Wind: 0mph
Humidity: 73%   Direction: NA
Pressure: 30.01"   Gusts: NA
Location:  36.39°N, 87.04°W
Report Text: KCKV 252352Z AUTO 00000KT 10SM CLR 21/16 A3001 RMK AO2 SLP160 T02110161 10261 20206 53005
Loading
Personal Weather Stations






























Interactive Weather Map
Tropical Storm Tracking
New forecast layout! Learn more

10-Day Weather Forecast

Advertisements
Track Severe Weather on mobile